Archival Weather

Komakuk Beach

Komakuk Beach, Canada (CWKM)

Report from: Saturday, June 22, 2024 12:00 AM UTC
Current time: Thursday, July 18, 2024 2:56 PM UTC

Current weather – Weather history – Daily summaries
Weather forecast

Present weatherSM
Temperature4.0°C (39.2°F)
Wind chill0.9°C (33.6°F)
Dew point-0.0°C (32.0°F)
Winds 7 kts (3.6 m/s, 8.1 mph) West-Northwest (300°)
Visibility0 ft. (0 m)
Altimeter30.09 in.Hg (1019 mB)
Relative humidity75 %
Density altitude-1,434 ft. (-437 m)
Remarks Fully automated report
Flight conditions Low Instrument Meteorological Conditions
Raw dataCWKM 220000Z AUTO 30007KT ////SM ////// 04/M00 A3009
An error has occurred. This application may no longer respond until reloaded. Reload 🗙